createdAt,value
2018-12-03T00:00:25.667Z,98.40
2018-12-03T00:02:28.800Z,98.50
2018-12-03T00:04:32.046Z,98.50
2018-12-03T00:06:35.181Z,98.50
2018-12-03T00:08:38.534Z,98.20
2018-12-03T00:10:41.700Z,98.40
2018-12-03T00:12:44.906Z,98.30
2018-12-03T00:14:48.063Z,98.30
2018-12-03T00:16:51.603Z,98.40
2018-12-03T00:18:54.758Z,98.30
2018-12-03T00:20:57.879Z,98.40
2018-12-03T00:23:01.018Z,98.50
2018-12-03T00:25:05.470Z,98.60
2018-12-03T00:27:08.595Z,98.10
2018-12-03T00:29:12.007Z,98.10
2018-12-03T00:33:18.621Z,97.80
2018-12-03T00:35:21.775Z,97.50
2018-12-03T00:37:24.908Z,97.50
2018-12-03T00:39:28.105Z,97.30
2018-12-03T00:41:31.253Z,97.30
2018-12-03T00:43:34.404Z,97.10
2018-12-03T00:45:37.603Z,97.00
2018-12-03T00:47:40.751Z,96.90
2018-12-03T00:49:44.030Z,96.80
2018-12-03T00:51:47.146Z,96.50
2018-12-03T00:53:50.343Z,96.70
2018-12-03T00:55:53.495Z,96.70
2018-12-03T00:57:56.615Z,97.00
2018-12-03T01:00:00.066Z,97.20
2018-12-03T01:02:03.199Z,96.70
2018-12-03T01:04:06.911Z,96.70
2018-12-03T01:06:10.073Z,97.20
2018-12-03T01:08:13.212Z,96.70
2018-12-03T01:10:16.547Z,96.70
2018-12-03T01:12:19.710Z,97.30
2018-12-03T01:16:25.838Z,96.60
2018-12-03T01:18:29.787Z,96.60
2018-12-03T01:20:33.142Z,96.90
2018-12-03T01:22:36.312Z,96.80
2018-12-03T01:24:39.669Z,96.90
2018-12-03T01:28:45.734Z,96.90
2018-12-03T01:30:48.912Z,96.50
2018-12-03T01:32:52.062Z,96.60
2018-12-03T01:34:55.242Z,96.90
2018-12-03T01:36:58.419Z,97.00
2018-12-03T01:39:01.566Z,96.90
2018-12-03T01:41:05.366Z,96.60
2018-12-03T01:43:08.507Z,96.90
2018-12-03T01:45:12.599Z,96.60
2018-12-03T01:47:15.804Z,97.20
2018-12-03T01:49:18.959Z,97.10
2018-12-03T01:51:22.291Z,96.80
2018-12-03T01:53:25.454Z,96.90
2018-12-03T01:55:28.671Z,97.50
2018-12-03T01:57:31.820Z,97.00
2018-12-03T02:01:38.031Z,97.50
2018-12-03T02:03:41.151Z,97.00
2018-12-03T02:05:44.283Z,97.00
2018-12-03T02:07:47.443Z,97.30
2018-12-03T02:09:50.562Z,97.40
2018-12-03T02:11:53.860Z,97.30
2018-12-03T02:13:57.011Z,97.10
2018-12-03T02:16:00.243Z,97.20
2018-12-03T02:18:03.431Z,97.40
2018-12-03T02:20:12.843Z,97.20
2018-12-03T02:22:16.047Z,97.40
2018-12-03T02:24:19.178Z,96.90
2018-12-03T02:26:22.327Z,97.50
2018-12-03T02:28:25.476Z,97.30
2018-12-03T02:30:28.621Z,97.30
2018-12-03T02:32:31.907Z,97.90
2018-12-03T02:34:35.055Z,97.90
2018-12-03T02:36:38.291Z,97.40
2018-12-03T02:38:41.463Z,97.30
2018-12-03T02:40:44.617Z,97.20
2018-12-03T02:42:47.811Z,97.60
2018-12-03T02:44:50.959Z,97.20
2018-12-03T02:46:54.139Z,97.20
2018-12-03T02:48:57.284Z,97.20
2018-12-03T02:51:00.439Z,97.20
2018-12-03T02:53:03.603Z,97.50
2018-12-03T02:55:07.987Z,97.40
2018-12-03T02:59:14.151Z,97.40
2018-12-03T03:01:18.178Z,97.50
2018-12-03T03:03:21.343Z,97.60
2018-12-03T03:05:24.478Z,97.60
2018-12-03T03:07:27.610Z,97.60
2018-12-03T03:09:30.746Z,97.30
2018-12-03T03:11:33.951Z,97.30
2018-12-03T03:13:37.109Z,97.40
2018-12-03T03:15:40.268Z,97.40
2018-12-03T03:17:43.406Z,97.60
2018-12-03T03:19:46.949Z,97.40
2018-12-03T03:21:50.295Z,98.00
2018-12-03T03:23:53.474Z,97.60
2018-12-03T03:25:56.617Z,97.50
2018-12-03T03:27:59.750Z,97.70
2018-12-03T03:30:03.042Z,97.70
2018-12-03T03:32:06.592Z,97.90
2018-12-03T03:34:09.723Z,97.70
2018-12-03T03:36:12.867Z,97.60
2018-12-03T03:38:16.014Z,97.70
2018-12-03T03:40:19.158Z,97.70
2018-12-03T03:42:22.702Z,97.20
2018-12-03T03:44:25.899Z,97.60
2018-12-03T03:46:29.058Z,97.70
2018-12-03T03:48:32.191Z,97.60
2018-12-03T03:50:35.346Z,98.10
2018-12-03T03:52:39.054Z,98.40
2018-12-03T03:54:42.195Z,98.30
2018-12-03T03:56:45.702Z,98.50
2018-12-03T03:58:48.860Z,98.50
2018-12-03T04:00:52.008Z,98.30
2018-12-03T04:02:56.208Z,98.30
2018-12-03T04:04:59.327Z,98.80
2018-12-03T04:07:02.458Z,99.40
2018-12-03T04:09:06.970Z,99.40
2018-12-03T04:11:10.095Z,99.00
2018-12-03T04:13:13.303Z,99.70
2018-12-03T04:15:16.971Z,99.60
2018-12-03T04:17:20.108Z,99.60
2018-12-03T04:19:23.243Z,99.30
2018-12-03T04:21:26.402Z,99.80
2018-12-03T04:23:29.783Z,99.80
2018-12-03T04:25:32.934Z,99.90
2018-12-03T04:27:36.143Z,99.90
2018-12-03T04:29:39.277Z,99.90
2018-12-03T04:31:42.421Z,99.90
2018-12-03T04:33:45.618Z,99.90
2018-12-03T04:35:48.737Z,99.90
2018-12-03T04:37:51.876Z,99.90
2018-12-03T04:39:55.059Z,99.90
2018-12-03T04:41:58.203Z,99.90
2018-12-03T04:44:01.614Z,99.90
2018-12-03T04:46:04.762Z,99.90
2018-12-03T04:48:07.890Z,99.90
2018-12-03T04:50:12.476Z,99.90
2018-12-03T04:54:18.599Z,99.90
2018-12-03T04:56:21.782Z,99.90
2018-12-03T04:58:24.938Z,99.90
2018-12-03T05:00:28.136Z,99.90
2018-12-03T05:04:35.406Z,99.90
2018-12-03T05:06:38.526Z,99.90
2018-12-03T05:08:41.679Z,99.90
2018-12-03T05:10:44.823Z,99.80
2018-12-03T05:12:49.939Z,99.80
2018-12-03T05:14:53.118Z,99.40
2018-12-03T05:16:56.250Z,99.40
2018-12-03T05:18:59.383Z,99.60
2018-12-03T05:21:02.519Z,99.60
2018-12-03T05:23:05.871Z,99.50
2018-12-03T05:25:10.183Z,99.60
2018-12-03T05:27:13.315Z,99.80
2018-12-03T05:29:16.458Z,99.80
2018-12-03T05:31:19.586Z,99.90
2018-12-03T05:33:22.720Z,99.70
2018-12-03T05:35:27.678Z,99.80
2018-12-03T05:37:30.800Z,99.30
2018-12-03T05:39:33.923Z,98.40
2018-12-03T05:41:37.446Z,99.30
2018-12-03T05:43:40.566Z,99.50
2018-12-03T05:45:43.874Z,99.30
2018-12-03T05:47:47.053Z,99.40
2018-12-03T05:49:50.247Z,99.40
2018-12-03T05:51:53.419Z,99.30
2018-12-03T05:53:56.614Z,99.20
2018-12-03T05:55:59.828Z,99.10
2018-12-03T05:58:02.970Z,98.90
2018-12-03T06:00:23.097Z,99.10
2018-12-03T06:02:26.238Z,99.10
2018-12-03T06:04:29.458Z,99.00
2018-12-03T06:06:34.054Z,99.00
2018-12-03T06:08:37.170Z,98.80
2018-12-03T06:10:40.330Z,98.80
2018-12-03T06:12:43.474Z,98.90
2018-12-03T06:14:46.636Z,99.00
2018-12-03T06:18:53.070Z,98.40
2018-12-03T06:20:56.195Z,98.50
2018-12-03T06:22:59.490Z,98.70
2018-12-03T06:25:02.648Z,98.50
2018-12-03T06:27:05.928Z,98.50
2018-12-03T06:29:09.054Z,98.50
2018-12-03T06:31:12.218Z,98.60
2018-12-03T06:33:15.595Z,98.40
2018-12-03T06:35:19.105Z,98.60
2018-12-03T06:37:22.430Z,98.60
2018-12-03T06:39:25.647Z,98.40
2018-12-03T06:41:28.790Z,98.60
2018-12-03T06:43:32.635Z,98.70
2018-12-03T06:45:35.920Z,98.80
2018-12-03T06:47:41.538Z,98.80
2018-12-03T06:49:44.690Z,99.00
2018-12-03T06:51:47.823Z,98.80
2018-12-03T06:53:50.958Z,98.80
2018-12-03T06:55:54.675Z,99.00
2018-12-03T06:57:57.998Z,99.00
2018-12-03T07:00:01.133Z,98.80
2018-12-03T07:02:04.267Z,98.90
2018-12-03T07:04:07.396Z,98.90
2018-12-03T07:06:10.546Z,99.10
2018-12-03T07:08:14.194Z,98.90
2018-12-03T07:10:18.422Z,98.80
2018-12-03T07:12:21.550Z,99.30
2018-12-03T07:14:25.112Z,99.70
2018-12-03T07:16:28.235Z,99.40
2018-12-03T07:18:31.476Z,99.60
2018-12-03T07:20:34.623Z,99.40
2018-12-03T07:22:37.851Z,99.80
2018-12-03T07:24:40.962Z,99.70
2018-12-03T07:26:44.116Z,99.40
2018-12-03T07:28:47.582Z,99.50
2018-12-03T07:30:50.731Z,99.40
2018-12-03T07:32:54.591Z,99.50
2018-12-03T07:34:57.743Z,99.00
2018-12-03T07:37:00.879Z,99.00
2018-12-03T07:39:05.098Z,99.00
2018-12-03T07:41:08.242Z,98.90
2018-12-03T07:43:11.371Z,99.00
2018-12-03T07:45:15.937Z,99.00
2018-12-03T07:47:19.162Z,99.30
2018-12-03T07:49:23.562Z,99.10
2018-12-03T07:51:26.737Z,99.10
2018-12-03T07:53:29.980Z,99.20
2018-12-03T07:55:33.118Z,99.00
2018-12-03T07:57:36.323Z,98.80
2018-12-03T07:59:39.523Z,98.80
2018-12-03T08:01:42.682Z,98.80
2018-12-03T08:03:45.822Z,99.00
2018-12-03T08:05:48.954Z,98.60
2018-12-03T08:07:52.091Z,98.50
2018-12-03T08:09:55.801Z,98.60
2018-12-03T08:11:58.922Z,98.80
2018-12-03T08:14:02.034Z,98.40
2018-12-03T08:16:05.193Z,98.60
2018-12-03T08:18:10.318Z,98.50
2018-12-03T08:20:18.539Z,98.60
2018-12-03T08:22:21.677Z,98.60
2018-12-03T08:24:24.815Z,98.50
2018-12-03T08:26:28.016Z,98.50
2018-12-03T08:30:35.485Z,98.60
2018-12-03T08:32:38.776Z,98.60
2018-12-03T08:34:41.906Z,98.60
2018-12-03T08:36:45.046Z,98.40
2018-12-03T08:40:51.371Z,98.40
2018-12-03T08:42:55.064Z,98.50
2018-12-03T08:44:58.822Z,98.50
2018-12-03T08:47:10.267Z,98.40
2018-12-03T08:49:13.410Z,98.30
2018-12-03T08:51:16.848Z,98.50
2018-12-03T08:53:19.985Z,98.20
2018-12-03T08:55:23.101Z,98.20
2018-12-03T08:59:32.670Z,98.10
2018-12-03T09:01:35.901Z,98.10
2018-12-03T09:03:39.369Z,98.00
2018-12-03T09:05:42.539Z,98.00
2018-12-03T09:09:48.559Z,97.90
2018-12-03T09:11:53.177Z,97.70
2018-12-03T09:13:56.311Z,97.90
2018-12-03T09:16:00.537Z,97.90
2018-12-03T09:18:03.894Z,97.80
2018-12-03T09:20:08.888Z,97.60
2018-12-03T09:22:11.774Z,97.70
2018-12-03T09:24:14.950Z,97.80
2018-12-03T09:26:18.107Z,97.80
2018-12-03T09:28:21.219Z,97.80
2018-12-03T09:30:27.726Z,98.00
2018-12-03T09:32:32.622Z,98.00
2018-12-03T09:34:35.846Z,98.20
2018-12-03T09:38:53.546Z,98.30
2018-12-03T09:40:58.938Z,98.40
2018-12-03T09:43:02.290Z,98.10
2018-12-03T09:45:10.437Z,98.20
2018-12-03T09:47:13.630Z,98.40
2018-12-03T09:49:16.902Z,98.40
2018-12-03T09:51:20.030Z,98.00
2018-12-03T09:53:24.320Z,98.10
2018-12-03T09:55:29.537Z,97.70
2018-12-03T09:57:32.667Z,97.60
2018-12-03T09:59:35.886Z,97.40
2018-12-03T10:01:39.131Z,97.40
2018-12-03T10:03:44.978Z,97.40
2018-12-03T10:05:54.191Z,97.30
2018-12-03T10:10:00.640Z,97.40
2018-12-03T10:14:07.826Z,97.30
2018-12-03T10:16:10.970Z,97.30
2018-12-03T10:18:14.126Z,97.30
2018-12-03T10:20:17.277Z,97.30
2018-12-03T10:22:20.450Z,97.40
2018-12-03T10:26:26.834Z,96.70
2018-12-03T10:30:33.414Z,96.70
2018-12-03T10:32:36.579Z,96.90
2018-12-03T10:34:40.798Z,96.90
2018-12-03T10:41:37.874Z,97.20
2018-12-03T10:43:41.057Z,97.20
2018-12-03T10:49:50.180Z,97.10
2018-12-03T10:51:53.525Z,97.20
2018-12-03T10:56:00.141Z,97.10
2018-12-03T10:58:03.911Z,96.90
2018-12-03T11:00:14.087Z,96.80
2018-12-03T11:02:32.106Z,96.80
2018-12-03T11:04:41.520Z,96.80
2018-12-03T11:06:45.026Z,96.60
2018-12-03T11:08:48.349Z,96.70
2018-12-03T11:12:55.952Z,96.40
2018-12-03T11:14:59.301Z,96.30
2018-12-03T11:17:03.130Z,96.10
2018-12-03T11:19:07.934Z,95.70
2018-12-03T11:21:11.302Z,95.60
2018-12-03T11:23:20.586Z,95.00
2018-12-03T11:25:29.692Z,95.10
2018-12-03T11:27:35.863Z,95.10
2018-12-03T11:29:40.707Z,95.10
2018-12-03T11:34:11.254Z,95.40
2018-12-03T11:38:23.863Z,95.10
2018-12-03T11:40:35.350Z,95.70
2018-12-03T11:42:38.720Z,95.40
2018-12-03T11:44:42.191Z,95.20
2018-12-03T11:46:45.455Z,95.10
2018-12-03T11:48:48.731Z,95.50
2018-12-03T11:50:52.157Z,95.50
2018-12-03T11:52:55.330Z,95.80
2018-12-03T11:55:01.829Z,95.30
2018-12-03T11:57:06.587Z,95.50
2018-12-03T11:59:09.758Z,95.70
2018-12-03T12:01:13.030Z,95.70
2018-12-03T12:03:16.275Z,96.10
2018-12-03T12:05:20.515Z,96.00
2018-12-03T12:07:23.675Z,96.00
2018-12-03T12:09:26.865Z,95.90
2018-12-03T12:11:30.186Z,95.90
2018-12-03T12:13:33.329Z,96.50
2018-12-03T12:15:37.021Z,95.70
2018-12-03T12:17:40.243Z,95.70
2018-12-03T12:19:43.427Z,95.50
2018-12-03T12:21:46.606Z,95.10
2018-12-03T12:23:49.971Z,94.40
2018-12-03T12:25:53.595Z,94.20
2018-12-03T12:27:58.209Z,93.70
2018-12-03T12:30:10.895Z,94.00
2018-12-03T12:34:17.339Z,93.00
2018-12-03T12:36:21.655Z,94.10
2018-12-03T12:38:24.847Z,93.00
2018-12-03T12:40:28.004Z,93.00
2018-12-03T12:42:31.923Z,93.30
2018-12-03T12:44:35.687Z,93.50
2018-12-03T12:46:41.017Z,93.90
2018-12-03T12:48:44.183Z,94.10
2018-12-03T12:50:47.448Z,94.10
2018-12-03T12:52:50.795Z,94.50
2018-12-03T12:54:53.987Z,94.80
2018-12-03T12:56:57.374Z,94.80
2018-12-03T12:59:02.518Z,94.80
2018-12-03T13:01:06.636Z,95.00
2018-12-03T13:03:09.998Z,95.50
2018-12-03T13:05:13.744Z,96.80
2018-12-03T13:09:20.126Z,95.10
2018-12-03T13:11:23.291Z,95.70
2018-12-03T13:13:26.549Z,96.40
2018-12-03T13:15:29.791Z,96.90
2018-12-03T13:17:34.187Z,97.30
2018-12-03T13:19:37.847Z,97.80
2018-12-03T13:21:41.142Z,98.20
2018-12-03T13:23:45.322Z,98.50
2018-12-03T13:25:48.561Z,98.70
2018-12-03T13:27:52.723Z,98.90
2018-12-03T13:29:55.866Z,99.40
2018-12-03T13:31:59.455Z,99.10
2018-12-03T13:34:03.578Z,99.90
2018-12-03T13:36:09.324Z,99.70
2018-12-03T13:38:12.846Z,99.50
2018-12-03T13:42:19.771Z,99.10
2018-12-03T13:44:22.991Z,99.00
2018-12-03T13:46:26.186Z,99.10
2018-12-03T13:48:29.700Z,99.00
2018-12-03T13:50:32.862Z,98.80
2018-12-03T13:52:36.007Z,98.90
2018-12-03T13:54:39.150Z,98.50
2018-12-03T13:56:42.313Z,98.60
2018-12-03T14:00:49.541Z,97.90
2018-12-03T14:04:01.730Z,97.90
2018-12-03T14:06:13.135Z,98.40
2018-12-03T14:08:24.294Z,99.30
2018-12-03T14:10:40.892Z,97.80
2018-12-03T14:12:48.236Z,97.80
2018-12-03T14:17:07.617Z,97.60
2018-12-03T14:19:14.775Z,97.60
2018-12-03T14:21:38.052Z,97.60
2018-12-03T14:23:42.691Z,97.60
2018-12-03T14:25:46.184Z,97.20
2018-12-03T14:27:49.440Z,97.40
2018-12-03T14:29:52.671Z,97.60
2018-12-03T14:31:55.995Z,97.60
2018-12-03T14:33:59.532Z,97.50
2018-12-03T14:36:03.399Z,97.40
2018-12-03T14:38:07.251Z,99.10
2018-12-03T14:40:11.017Z,97.70
2018-12-03T14:42:18.016Z,97.50
2018-12-03T14:44:21.392Z,99.90
2018-12-03T14:46:24.680Z,97.40
2018-12-03T14:48:27.814Z,99.00
2018-12-03T14:50:31.291Z,97.50
2018-12-03T14:52:34.559Z,97.20
2018-12-03T14:56:40.878Z,97.50
2018-12-03T14:58:44.110Z,97.50
2018-12-03T15:00:47.430Z,97.40
2018-12-03T15:02:51.638Z,97.30
2018-12-03T15:04:54.794Z,97.40
2018-12-03T15:06:57.951Z,97.50
2018-12-03T15:09:02.217Z,97.10
2018-12-03T15:11:05.621Z,99.20
2018-12-03T15:13:09.308Z,97.60
2018-12-03T15:19:18.459Z,97.10
2018-12-03T15:21:21.635Z,97.10
2018-12-03T15:25:27.902Z,97.00
2018-12-03T15:27:31.043Z,96.90
2018-12-03T15:29:34.183Z,96.70
2018-12-03T15:31:37.340Z,96.90
2018-12-03T15:33:40.666Z,96.90
2018-12-03T15:35:43.826Z,96.90
2018-12-03T15:37:47.149Z,96.80
2018-12-03T15:41:53.975Z,96.70
2018-12-03T15:46:00.722Z,96.80
2018-12-03T15:48:04.282Z,98.80
2018-12-03T15:50:07.888Z,97.90
2018-12-03T15:52:11.303Z,98.60
2018-12-03T15:54:14.574Z,97.10
2018-12-03T15:58:20.843Z,97.30
2018-12-03T16:00:24.022Z,98.60
2018-12-03T16:02:27.389Z,97.50
2018-12-03T16:04:30.642Z,97.30
2018-12-03T16:06:33.785Z,97.30
2018-12-03T16:08:36.927Z,97.50
2018-12-03T16:10:40.072Z,97.50
2018-12-03T16:12:44.867Z,97.50
2018-12-03T16:14:48.365Z,98.00
2018-12-03T16:16:51.504Z,97.50
2018-12-03T16:18:54.654Z,97.50
2018-12-03T16:20:58.378Z,97.40
2018-12-03T16:23:02.200Z,97.20
2018-12-03T16:25:07.492Z,97.50
2018-12-03T16:27:10.802Z,97.40
2018-12-03T16:29:13.943Z,97.50
2018-12-03T16:31:17.084Z,97.30
2018-12-03T16:33:20.468Z,97.30
2018-12-03T16:35:23.835Z,97.30
2018-12-03T16:37:27.135Z,98.50
2018-12-03T16:39:30.452Z,96.40
2018-12-03T16:41:34.231Z,97.40
2018-12-03T16:43:37.465Z,97.30
2018-12-03T16:45:40.728Z,97.30
2018-12-03T16:47:43.865Z,97.40
2018-12-03T16:49:46.995Z,97.50
2018-12-03T16:51:50.255Z,97.70
2018-12-03T16:53:53.407Z,97.50
2018-12-03T16:55:56.848Z,97.50
2018-12-03T16:58:00.309Z,97.60
2018-12-03T17:00:05.587Z,97.60
2018-12-03T17:02:08.883Z,97.70
2018-12-03T17:04:12.173Z,99.90
2018-12-03T17:06:15.763Z,97.60
2018-12-03T17:08:18.986Z,97.90
2018-12-03T17:10:22.280Z,99.90
2018-12-03T17:12:28.165Z,97.90
2018-12-03T17:14:31.390Z,97.90
2018-12-03T17:18:37.984Z,98.10
2018-12-03T17:20:49.999Z,98.10
2018-12-03T17:23:03.561Z,98.10
2018-12-03T17:25:19.347Z,98.30
2018-12-03T17:27:22.626Z,98.20
2018-12-03T17:31:29.117Z,98.40
2018-12-03T17:33:32.318Z,98.10
2018-12-03T17:35:35.875Z,98.20
2018-12-03T17:37:40.474Z,98.10
2018-12-03T17:39:43.617Z,98.50
2018-12-03T17:41:46.915Z,98.30
2018-12-03T17:43:50.264Z,98.20
2018-12-03T17:45:53.502Z,98.20
2018-12-03T17:47:56.829Z,98.10
2018-12-03T17:52:03.860Z,98.10
2018-12-03T17:54:07.854Z,98.10
2018-12-03T17:58:14.058Z,98.30
2018-12-03T18:00:18.449Z,99.60
2018-12-03T18:04:24.566Z,98.20
2018-12-03T18:06:28.623Z,98.40
2018-12-03T18:08:32.302Z,98.20
2018-12-03T18:10:35.428Z,98.30
2018-12-03T18:12:39.175Z,98.40
2018-12-03T18:14:42.301Z,98.50
2018-12-03T18:16:45.843Z,98.30
2018-12-03T18:18:49.084Z,98.10
2018-12-03T18:20:52.218Z,98.30
2018-12-03T18:22:55.370Z,98.10
2018-12-03T18:24:58.745Z,98.20
2018-12-03T18:27:03.058Z,98.10
2018-12-03T18:29:06.861Z,98.20
2018-12-03T18:31:10.702Z,99.90
2018-12-03T18:33:13.810Z,98.30
2018-12-03T18:37:20.143Z,98.20
2018-12-03T18:39:23.659Z,98.20
2018-12-03T18:41:26.775Z,98.30
2018-12-03T18:45:33.278Z,98.20
2018-12-03T18:47:36.436Z,97.90
2018-12-03T18:49:43.660Z,97.90
2018-12-03T18:51:46.795Z,98.10
2018-12-03T18:53:49.939Z,97.90
2018-12-03T18:55:53.567Z,98.10
2018-12-03T18:58:00.964Z,98.30
2018-12-03T19:00:09.212Z,98.20
2018-12-03T19:02:12.428Z,99.40
2018-12-03T19:04:16.378Z,98.20
2018-12-03T19:06:19.634Z,98.00
2018-12-03T19:08:22.801Z,98.20
2018-12-03T19:10:26.064Z,98.20
2018-12-03T19:12:29.331Z,98.10
2018-12-03T19:14:32.470Z,98.00
2018-12-03T19:16:35.684Z,97.90
2018-12-03T19:18:38.887Z,97.90
2018-12-03T19:20:42.379Z,98.10
2018-12-03T19:22:45.644Z,98.10
2018-12-03T19:24:48.766Z,98.30
2018-12-03T19:26:51.923Z,98.30
2018-12-03T19:28:55.151Z,98.40
2018-12-03T19:30:58.742Z,98.60
2018-12-03T19:33:02.575Z,98.30
2018-12-03T19:35:06.374Z,98.20
2018-12-03T19:37:10.102Z,99.70
2018-12-03T19:39:13.462Z,98.00
2018-12-03T19:41:16.696Z,98.20
2018-12-03T19:45:23.028Z,98.10
2018-12-03T19:47:26.234Z,97.90
2018-12-03T19:49:29.449Z,98.10
2018-12-03T19:51:32.837Z,98.00
2018-12-03T19:53:35.963Z,97.90
2018-12-03T19:55:39.216Z,98.00
2018-12-03T19:57:43.867Z,98.10
2018-12-03T19:59:49.423Z,97.90
2018-12-03T20:01:52.643Z,97.90
2018-12-03T20:03:55.880Z,97.80
2018-12-03T20:05:59.177Z,97.90
2018-12-03T20:08:03.816Z,97.90
2018-12-03T20:10:08.962Z,97.80
2018-12-03T20:12:12.515Z,99.90
2018-12-03T20:14:15.681Z,98.20
2018-12-03T20:16:19.034Z,98.10
2018-12-03T20:18:22.199Z,98.40
2018-12-03T20:20:39.218Z,98.50
2018-12-03T20:22:51.351Z,98.70
2018-12-03T20:24:54.583Z,98.70
2018-12-03T20:27:09.202Z,98.90
2018-12-03T20:29:26.734Z,98.70
2018-12-03T20:31:38.380Z,98.50
2018-12-03T20:34:50.827Z,98.50
2018-12-03T20:38:06.835Z,98.20
2018-12-03T20:42:29.042Z,97.70
2018-12-03T20:44:41.746Z,99.90
2018-12-03T20:47:12.272Z,97.60
2018-12-03T20:49:31.779Z,97.40
2018-12-03T20:51:38.235Z,97.00
2018-12-03T20:53:46.371Z,96.80
2018-12-03T20:55:50.004Z,97.20
2018-12-03T20:57:53.179Z,97.10
2018-12-03T20:59:56.475Z,96.80
2018-12-03T21:02:00.031Z,96.50
2018-12-03T21:06:06.203Z,95.80
2018-12-03T21:08:11.130Z,96.40
2018-12-03T21:10:14.529Z,96.20
2018-12-03T21:12:17.928Z,96.30
2018-12-03T21:14:21.518Z,96.40
2018-12-03T21:16:24.811Z,99.30
2018-12-03T21:18:28.038Z,96.30
2018-12-03T21:20:36.819Z,96.30
2018-12-03T21:22:40.177Z,96.30
2018-12-03T21:24:48.395Z,96.10
2018-12-03T21:26:52.362Z,98.30
2018-12-03T21:28:55.535Z,98.20
2018-12-03T21:30:58.727Z,96.10
2018-12-03T21:33:02.046Z,96.00
2018-12-03T21:35:05.874Z,96.00
2018-12-03T21:37:09.450Z,96.00
2018-12-03T21:39:13.537Z,95.80
2018-12-03T21:41:16.891Z,95.40
2018-12-03T21:43:21.379Z,97.70
2018-12-03T21:45:24.935Z,95.60
2018-12-03T21:47:28.635Z,95.90
2018-12-03T21:49:31.919Z,95.10
2018-12-03T21:51:35.186Z,95.10
2018-12-03T21:53:38.565Z,94.80
2018-12-03T21:55:43.206Z,95.60
2018-12-03T21:57:46.836Z,95.00
2018-12-03T21:59:50.233Z,95.10
2018-12-03T22:01:53.496Z,94.70
2018-12-03T22:03:56.970Z,97.60
2018-12-03T22:06:00.155Z,95.70
2018-12-03T22:08:03.611Z,96.10
2018-12-03T22:12:10.202Z,96.10
2018-12-03T22:14:14.097Z,96.20
2018-12-03T22:16:17.562Z,98.60
2018-12-03T22:18:21.108Z,97.10
2018-12-03T22:20:24.310Z,98.40
2018-12-03T22:22:27.727Z,98.70
2018-12-03T22:24:31.131Z,98.20
2018-12-03T22:26:34.332Z,96.40
2018-12-03T22:28:37.730Z,96.70
2018-12-03T22:30:41.158Z,96.50
2018-12-03T22:32:44.827Z,96.50
2018-12-03T22:34:48.202Z,99.80
2018-12-03T22:36:51.434Z,96.80
2018-12-03T22:38:54.801Z,96.70
2018-12-03T22:40:57.942Z,99.90
2018-12-03T22:43:01.074Z,99.30
2018-12-03T22:45:04.840Z,97.60
2018-12-03T22:47:07.987Z,96.70
2018-12-03T22:49:11.840Z,96.60
2018-12-03T22:51:15.290Z,96.50
2018-12-03T22:53:18.840Z,96.30
2018-12-03T22:55:22.467Z,96.50
2018-12-03T22:57:25.760Z,96.30
2018-12-03T22:59:29.103Z,96.40
2018-12-03T23:01:32.434Z,96.40
2018-12-03T23:03:35.758Z,96.20
2018-12-03T23:05:39.004Z,96.20
2018-12-03T23:07:42.819Z,96.50
2018-12-03T23:09:46.426Z,96.20
2018-12-03T23:11:50.090Z,97.90
2018-12-03T23:13:53.487Z,96.60
2018-12-03T23:17:59.746Z,96.50
2018-12-03T23:20:03.342Z,96.70
2018-12-03T23:22:06.590Z,96.50
2018-12-03T23:24:09.760Z,96.40
2018-12-03T23:26:14.575Z,96.60
2018-12-03T23:28:18.185Z,99.10
2018-12-03T23:30:21.616Z,99.40
2018-12-03T23:32:25.091Z,97.00
2018-12-03T23:34:28.230Z,97.00
2018-12-03T23:38:34.450Z,96.90
2018-12-03T23:42:40.720Z,96.80
2018-12-03T23:44:44.762Z,97.10
2018-12-03T23:46:48.462Z,96.70
2018-12-03T23:48:51.649Z,96.90
2018-12-03T23:50:55.355Z,96.70
2018-12-03T23:52:58.718Z,96.80
2018-12-03T23:55:01.896Z,96.70
2018-12-03T23:57:05.127Z,96.90
2018-12-03T23:59:08.282Z,97.00
